createdAt,value
2023-03-05T00:03:40.970Z,-3.42
2023-03-05T00:07:18.598Z,-3.45
2023-03-05T00:10:11.965Z,-3.48
2023-03-05T00:13:39.142Z,-3.50
2023-03-05T00:16:53.298Z,-3.52
2023-03-05T00:19:41.033Z,-3.53
2023-03-05T00:23:03.382Z,-3.55
2023-03-05T00:26:12.272Z,-3.56
2023-03-05T00:28:58.632Z,-3.59
2023-03-05T00:31:59.045Z,-3.60
2023-03-05T00:35:37.883Z,-3.61
2023-03-05T00:38:36.248Z,-3.61
2023-03-05T00:42:13.318Z,-3.62
2023-03-05T00:45:19.705Z,-3.62
2023-03-05T00:48:47.487Z,-3.63
2023-03-05T00:52:13.547Z,-3.63
2023-03-05T00:55:44.774Z,-3.65
2023-03-05T00:59:32.178Z,-3.66
2023-03-05T01:03:19.620Z,-3.68
2023-03-05T01:06:35.922Z,-3.69
2023-03-05T01:10:04.795Z,-3.70
2023-03-05T01:13:27.355Z,-3.70
2023-03-05T01:17:14.590Z,-3.69
2023-03-05T01:21:03.396Z,-3.69
2023-03-05T01:24:08.950Z,-3.70
2023-03-05T01:27:26.074Z,-3.71
2023-03-05T01:30:48.578Z,-3.71
2023-03-05T01:34:13.417Z,-3.72
2023-03-05T01:37:21.824Z,-3.72
2023-03-05T01:40:50.317Z,-3.73
2023-03-05T01:44:39.144Z,-3.74
2023-03-05T01:48:27.980Z,-3.74
2023-03-05T01:51:52.748Z,-3.75
2023-03-05T01:55:25.746Z,-3.76
2023-03-05T01:58:38.117Z,-3.76
2023-03-05T02:02:26.967Z,-3.79
2023-03-05T02:06:04.279Z,-3.78
2023-03-05T02:09:45.998Z,-3.79
2023-03-05T02:13:36.941Z,-3.80
2023-03-05T02:16:59.632Z,-3.81
2023-03-05T02:20:35.800Z,-3.82
2023-03-05T02:24:00.892Z,-3.83
2023-03-05T02:27:46.647Z,-3.84
2023-03-05T02:31:34.479Z,-3.84
2023-03-05T02:35:11.021Z,-3.84
2023-03-05T02:38:41.929Z,-3.84
2023-03-05T02:42:09.317Z,-3.85
2023-03-05T02:45:46.119Z,-3.85
2023-03-05T02:49:05.763Z,-3.85
2023-03-05T02:52:29.033Z,-3.86
2023-03-05T02:55:56.136Z,-3.87
2023-03-05T02:59:33.868Z,-3.88
2023-03-05T03:03:11.227Z,-3.88
2023-03-05T03:06:16.114Z,-3.89
2023-03-05T03:09:26.163Z,-3.89
2023-03-05T03:13:08.749Z,-3.90
2023-03-05T03:16:07.930Z,-3.90
2023-03-05T03:18:56.429Z,-3.91
2023-03-05T03:22:02.420Z,-3.90
2023-03-05T03:24:53.791Z,-3.90
2023-03-05T03:27:22.806Z,-3.91
2023-03-05T03:30:14.424Z,-3.90
2023-03-05T03:33:03.491Z,-3.90
2023-03-05T03:35:59.469Z,-3.90
2023-03-05T03:39:10.970Z,-3.90
2023-03-05T03:41:51.590Z,-3.89
2023-03-05T03:44:25.113Z,-3.89
2023-03-05T03:46:54.646Z,-3.88
2023-03-05T03:50:04.434Z,-3.89
2023-03-05T03:53:03.540Z,-3.88
2023-03-05T03:55:53.989Z,-3.88
2023-03-05T03:58:49.702Z,-3.87
2023-03-05T04:01:47.217Z,-3.87
2023-03-05T04:04:45.688Z,-3.87
2023-03-05T04:08:08.435Z,-3.87
2023-03-05T04:11:09.746Z,-3.87
2023-03-05T04:14:26.551Z,-3.86
2023-03-05T04:17:26.485Z,-3.85
2023-03-05T04:20:43.659Z,-3.84
2023-03-05T04:24:14.665Z,-3.84
2023-03-05T04:27:00.237Z,-3.85
2023-03-05T04:30:39.004Z,-3.84
2023-03-05T04:33:27.659Z,-3.84
2023-03-05T04:36:40.488Z,-3.84
2023-03-05T04:39:21.332Z,-3.83
2023-03-05T04:42:09.639Z,-3.82
2023-03-05T04:44:43.385Z,-3.82
2023-03-05T04:47:37.180Z,-3.81
2023-03-05T04:50:39.021Z,-3.81
2023-03-05T04:53:42.331Z,-3.80
2023-03-05T04:56:38.149Z,-3.81
2023-03-05T04:59:15.433Z,-3.81
2023-03-05T05:02:44.268Z,-3.80
2023-03-05T05:05:43.441Z,-3.79
2023-03-05T05:08:54.407Z,-3.79
2023-03-05T05:11:42.386Z,-3.79
2023-03-05T05:15:08.569Z,-3.79
2023-03-05T05:17:59.620Z,-3.79
2023-03-05T05:20:35.431Z,-3.79
2023-03-05T05:23:18.841Z,-3.78
2023-03-05T05:26:15.627Z,-3.78
2023-03-05T05:28:48.949Z,-3.79
2023-03-05T05:32:04.578Z,-3.79
2023-03-05T05:35:17.623Z,-3.77
2023-03-05T05:38:11.594Z,-3.78
2023-03-05T05:41:43.238Z,-3.77
2023-03-05T05:44:31.407Z,-3.77
2023-03-05T05:47:35.951Z,-3.77
2023-03-05T05:50:28.508Z,-3.77
2023-03-05T05:53:23.322Z,-3.76
2023-03-05T05:56:34.377Z,-3.75
2023-03-05T05:59:43.717Z,-3.73
2023-03-05T06:02:35.121Z,-3.72
2023-03-05T06:05:46.204Z,-3.70
2023-03-05T06:08:28.401Z,-3.68
2023-03-05T06:10:58.917Z,-3.65
2023-03-05T06:13:58.690Z,-3.62
2023-03-05T06:16:39.479Z,-3.59
2023-03-05T06:19:19.196Z,-3.54
2023-03-05T06:21:50.497Z,-3.50
2023-03-05T06:24:19.332Z,-3.45
2023-03-05T06:26:49.914Z,-3.39
2023-03-05T06:29:25.728Z,-3.34
2023-03-05T06:32:01.354Z,-3.29
2023-03-05T06:34:29.514Z,-3.23
2023-03-05T06:36:57.497Z,-3.17
2023-03-05T06:39:35.989Z,-3.11
2023-03-05T06:42:07.208Z,-3.06
2023-03-05T06:44:37.676Z,-3.00
2023-03-05T06:47:09.307Z,-2.94
2023-03-05T06:49:38.915Z,-2.88
2023-03-05T06:52:17.814Z,-2.80
2023-03-05T06:54:46.219Z,-2.76
2023-03-05T06:57:14.173Z,-2.71
2023-03-05T06:59:45.162Z,-2.66
2023-03-05T07:02:14.148Z,-2.62
2023-03-05T07:04:42.439Z,-2.57
2023-03-05T07:07:20.695Z,-2.52
2023-03-05T07:09:50.309Z,-2.47
2023-03-05T07:12:21.363Z,-2.42
2023-03-05T07:14:58.726Z,-2.38
2023-03-05T07:17:56.978Z,-2.33
2023-03-05T07:20:25.071Z,-2.26
2023-03-05T07:22:53.246Z,-2.21
2023-03-05T07:25:24.711Z,-2.15
2023-03-05T07:27:52.681Z,-2.08
2023-03-05T07:30:21.114Z,-2.02
2023-03-05T07:32:53.629Z,-1.97
2023-03-05T07:35:24.643Z,-1.90
2023-03-05T07:37:55.918Z,-1.83
2023-03-05T07:40:26.847Z,-1.77
2023-03-05T07:42:58.114Z,-1.71
2023-03-05T07:45:32.727Z,-1.65
2023-03-05T07:48:00.770Z,-1.59
2023-03-05T07:50:28.880Z,-1.53
2023-03-05T07:53:02.673Z,-1.46
2023-03-05T07:55:49.635Z,-1.40
2023-03-05T07:58:23.191Z,-1.33
2023-03-05T08:01:06.734Z,-1.27
2023-03-05T08:04:15.221Z,-1.21
2023-03-05T08:07:23.887Z,-1.13
2023-03-05T08:10:00.838Z,-1.07
2023-03-05T08:13:26.851Z,-1.01
2023-03-05T08:16:50.437Z,-0.93
2023-03-05T08:19:24.265Z,-0.87
2023-03-05T08:22:13.658Z,-0.83
2023-03-05T08:25:03.697Z,-0.79
2023-03-05T08:28:02.389Z,-0.74
2023-03-05T08:30:48.887Z,-0.70
2023-03-05T08:33:26.687Z,-0.67
2023-03-05T08:36:13.257Z,-0.63
2023-03-05T08:38:47.824Z,-0.59
2023-03-05T08:41:20.366Z,-0.55
2023-03-05T08:43:51.856Z,-0.52
2023-03-05T08:46:53.832Z,-0.49
2023-03-05T08:49:24.995Z,-0.46
2023-03-05T08:51:55.715Z,-0.43
2023-03-05T08:54:23.785Z,-0.40
2023-03-05T08:57:01.433Z,-0.37
2023-03-05T08:59:30.142Z,-0.35
2023-03-05T09:02:02.557Z,-0.32
2023-03-05T09:04:30.406Z,-0.30
2023-03-05T09:06:58.553Z,-0.27
2023-03-05T09:09:30.192Z,-0.24
2023-03-05T09:11:59.546Z,-0.22
2023-03-05T09:14:28.684Z,-0.18
2023-03-05T09:16:57.561Z,-0.15
2023-03-05T09:19:27.460Z,-0.12
2023-03-05T09:21:57.121Z,-0.10
2023-03-05T09:24:28.665Z,-0.08
2023-03-05T09:27:00.417Z,-0.05
2023-03-05T09:29:29.987Z,-0.03
2023-03-05T09:32:00.589Z,0.00
2023-03-05T09:34:28.834Z,0.02
2023-03-05T09:36:59.886Z,0.04
2023-03-05T09:39:38.305Z,0.07
2023-03-05T09:42:20.750Z,0.10
2023-03-05T09:45:08.918Z,0.12
2023-03-05T09:48:13.122Z,0.14
2023-03-05T09:51:04.395Z,0.17
2023-03-05T09:54:41.794Z,0.19
2023-03-05T09:57:44.667Z,0.23
2023-03-05T10:00:49.247Z,0.25
2023-03-05T10:03:59.217Z,0.27
2023-03-05T10:07:02.996Z,0.32
2023-03-05T10:09:43.528Z,0.36
2023-03-05T10:12:48.921Z,0.39
2023-03-05T10:16:19.227Z,0.43
2023-03-05T10:19:04.055Z,0.47
2023-03-05T10:22:11.977Z,0.51
2023-03-05T10:25:22.770Z,0.55
2023-03-05T10:28:23.069Z,0.58
2023-03-05T10:31:27.445Z,0.60
2023-03-05T10:34:44.313Z,0.62
2023-03-05T10:37:27.371Z,0.64
2023-03-05T10:40:11.075Z,0.65
2023-03-05T10:43:31.364Z,0.67
2023-03-05T10:46:04.593Z,0.69
2023-03-05T10:48:52.299Z,0.71
2023-03-05T10:51:26.086Z,0.72
2023-03-05T10:53:59.149Z,0.73
2023-03-05T10:56:29.242Z,0.75
2023-03-05T10:58:59.832Z,0.78
2023-03-05T11:01:33.074Z,0.79
2023-03-05T11:04:30.387Z,0.81
2023-03-05T11:06:58.356Z,0.82
2023-03-05T11:09:45.601Z,0.83
2023-03-05T11:12:29.683Z,0.84
2023-03-05T11:15:34.549Z,0.85
2023-03-05T11:18:23.078Z,0.85
2023-03-05T11:21:11.130Z,0.83
2023-03-05T11:23:41.443Z,0.82
2023-03-05T11:26:12.403Z,0.81
2023-03-05T11:29:04.820Z,0.77
2023-03-05T11:31:33.646Z,0.75
2023-03-05T11:34:24.419Z,0.73
2023-03-05T11:36:58.383Z,0.73
2023-03-05T11:39:30.330Z,0.71
2023-03-05T11:42:03.574Z,0.71
2023-03-05T11:44:44.154Z,0.72
2023-03-05T11:47:18.427Z,0.71
2023-03-05T11:49:50.752Z,0.70
2023-03-05T11:52:32.142Z,0.70
2023-03-05T11:55:16.085Z,0.70
2023-03-05T11:57:52.944Z,0.70
2023-03-05T12:00:31.985Z,0.72
2023-03-05T12:03:07.824Z,0.73
2023-03-05T12:05:39.067Z,0.72
2023-03-05T12:08:14.932Z,0.73
2023-03-05T12:10:45.406Z,0.73
2023-03-05T12:13:37.403Z,0.74
2023-03-05T12:16:15.888Z,0.74
2023-03-05T12:18:52.780Z,0.73
2023-03-05T12:21:44.584Z,0.73
2023-03-05T12:24:28.472Z,0.73
2023-03-05T12:27:02.367Z,0.73
2023-03-05T12:29:33.345Z,0.71
2023-03-05T12:32:02.812Z,0.70
2023-03-05T12:34:40.569Z,0.69
2023-03-05T12:37:34.418Z,0.69
2023-03-05T12:40:34.608Z,0.67
2023-03-05T12:43:28.595Z,0.65
2023-03-05T12:46:25.797Z,0.63
2023-03-05T12:48:53.823Z,0.63
2023-03-05T12:51:37.847Z,0.63
2023-03-05T12:54:40.952Z,0.63
2023-03-05T12:57:29.681Z,0.61
2023-03-05T13:00:14.486Z,0.61
2023-03-05T13:02:58.507Z,0.61
2023-03-05T13:05:37.350Z,0.60
2023-03-05T13:08:15.549Z,0.60
2023-03-05T13:10:52.418Z,0.61
2023-03-05T13:13:21.627Z,0.62
2023-03-05T13:15:53.620Z,0.63
2023-03-05T13:18:42.133Z,0.64
2023-03-05T13:21:29.673Z,0.66
2023-03-05T13:24:05.591Z,0.66
2023-03-05T13:26:40.190Z,0.68
2023-03-05T13:29:14.263Z,0.69
2023-03-05T13:31:51.998Z,0.71
2023-03-05T13:34:46.183Z,0.71
2023-03-05T13:37:18.915Z,0.72
2023-03-05T13:39:57.734Z,0.73
2023-03-05T13:42:28.590Z,0.73
2023-03-05T13:45:20.485Z,0.73
2023-03-05T13:48:00.561Z,0.73
2023-03-05T13:50:40.257Z,0.73
2023-03-05T13:53:23.273Z,0.74
2023-03-05T13:55:56.475Z,0.74
2023-03-05T13:58:47.540Z,0.73
2023-03-05T14:01:40.779Z,0.71
2023-03-05T14:04:20.514Z,0.69
2023-03-05T14:07:29.354Z,0.68
2023-03-05T14:09:57.982Z,0.68
2023-03-05T14:12:40.816Z,0.68
2023-03-05T14:15:22.770Z,0.68
2023-03-05T14:18:39.182Z,0.69
2023-03-05T14:21:24.784Z,0.69
2023-03-05T14:24:56.509Z,0.67
2023-03-05T14:27:41.563Z,0.66
2023-03-05T14:31:12.429Z,0.65
2023-03-05T14:34:03.791Z,0.66
2023-03-05T14:36:52.740Z,0.65
2023-03-05T14:40:09.867Z,0.65
2023-03-05T14:43:21.423Z,0.66
2023-03-05T14:46:04.510Z,0.67
2023-03-05T14:48:56.651Z,0.67
2023-03-05T14:51:29.535Z,0.68
2023-03-05T14:54:01.096Z,0.69
2023-03-05T14:56:39.397Z,0.70
2023-03-05T14:59:09.508Z,0.70
2023-03-05T15:01:37.720Z,0.70
2023-03-05T15:04:10.674Z,0.69
2023-03-05T15:06:41.148Z,0.70
2023-03-05T15:09:12.357Z,0.71
2023-03-05T15:11:40.476Z,0.72
2023-03-05T15:14:10.332Z,0.72
2023-03-05T15:16:42.182Z,0.71
2023-03-05T15:19:13.709Z,0.71
2023-03-05T15:21:42.171Z,0.71
2023-03-05T15:24:11.355Z,0.70
2023-03-05T15:26:42.104Z,0.69
2023-03-05T15:29:10.256Z,0.69
2023-03-05T15:32:01.709Z,0.68
2023-03-05T15:34:50.082Z,0.68
2023-03-05T15:37:20.828Z,0.67
2023-03-05T15:39:48.930Z,0.66
2023-03-05T15:42:17.186Z,0.66
2023-03-05T15:44:45.236Z,0.66
2023-03-05T15:47:13.117Z,0.65
2023-03-05T15:49:43.420Z,0.63
2023-03-05T15:52:11.390Z,0.62
2023-03-05T15:54:39.647Z,0.61
2023-03-05T15:57:12.661Z,0.61
2023-03-05T15:59:40.920Z,0.60
2023-03-05T16:02:09.018Z,0.58
2023-03-05T16:04:36.989Z,0.56
2023-03-05T16:07:06.180Z,0.55
2023-03-05T16:09:41.235Z,0.53
2023-03-05T16:12:14.204Z,0.52
2023-03-05T16:14:46.353Z,0.50
2023-03-05T16:17:20.438Z,0.48
2023-03-05T16:19:54.593Z,0.45
2023-03-05T16:22:23.799Z,0.43
2023-03-05T16:24:54.230Z,0.41
2023-03-05T16:27:22.269Z,0.39
2023-03-05T16:29:51.123Z,0.37
2023-03-05T16:32:19.405Z,0.34
2023-03-05T16:34:48.779Z,0.32
2023-03-05T16:37:23.179Z,0.30
2023-03-05T16:39:51.749Z,0.29
2023-03-05T16:42:19.716Z,0.21
2023-03-05T16:44:49.868Z,0.24
2023-03-05T16:47:17.876Z,0.21
2023-03-05T16:49:45.800Z,0.18
2023-03-05T16:52:19.129Z,0.17
2023-03-05T16:54:49.415Z,0.14
2023-03-05T16:57:18.061Z,0.12
2023-03-05T16:59:46.431Z,0.11
2023-03-05T17:02:15.388Z,0.07
2023-03-05T17:04:46.105Z,0.05
2023-03-05T17:07:15.602Z,0.02
2023-03-05T17:09:44.671Z,-0.01
2023-03-05T17:12:15.341Z,-0.04
2023-03-05T17:14:45.927Z,-0.07
2023-03-05T17:17:16.377Z,-0.10
2023-03-05T17:19:44.695Z,-0.13
2023-03-05T17:22:16.166Z,-0.16
2023-03-05T17:24:46.678Z,-0.20
2023-03-05T17:27:18.677Z,-0.24
2023-03-05T17:29:47.081Z,-0.28
2023-03-05T17:32:19.097Z,-0.32
2023-03-05T17:34:53.461Z,-0.35
2023-03-05T17:37:22.664Z,-0.39
2023-03-05T17:39:51.071Z,-0.42
2023-03-05T17:42:21.568Z,-0.45
2023-03-05T17:44:50.192Z,-0.49
2023-03-05T17:47:23.754Z,-0.52
2023-03-05T17:49:56.030Z,-0.55
2023-03-05T17:52:24.137Z,-0.60
2023-03-05T17:54:53.163Z,-0.63
2023-03-05T17:57:22.399Z,-0.66
2023-03-05T17:59:52.882Z,-0.70
2023-03-05T18:02:26.609Z,-0.74
2023-03-05T18:04:56.767Z,-0.79
2023-03-05T18:07:27.063Z,-0.83
2023-03-05T18:09:55.035Z,-0.87
2023-03-05T18:12:33.548Z,-0.91
2023-03-05T18:15:01.916Z,-0.94
2023-03-05T18:17:29.677Z,-0.97
2023-03-05T18:20:03.910Z,-1.00
2023-03-05T18:22:35.936Z,-1.03
2023-03-05T18:25:08.161Z,-1.06
2023-03-05T18:27:36.301Z,-1.10
2023-03-05T18:30:27.967Z,-1.12
2023-03-05T18:32:58.877Z,-1.17
2023-03-05T18:35:33.409Z,-1.20
2023-03-05T18:38:04.331Z,-1.23
2023-03-05T18:40:37.334Z,-1.26
2023-03-05T18:43:05.592Z,-1.27
2023-03-05T18:45:38.198Z,-1.31
2023-03-05T18:48:06.532Z,-1.33
2023-03-05T18:51:02.062Z,-1.37
2023-03-05T18:53:33.193Z,-1.40
2023-03-05T18:56:16.719Z,-1.43
2023-03-05T18:58:56.974Z,-1.47
2023-03-05T19:01:29.294Z,-1.48
2023-03-05T19:03:57.764Z,-1.51
2023-03-05T19:06:25.746Z,-1.54
2023-03-05T19:09:40.336Z,-1.57
2023-03-05T19:12:19.272Z,-1.59
2023-03-05T19:14:47.130Z,-1.63
2023-03-05T19:17:22.463Z,-1.65
2023-03-05T19:20:00.567Z,-1.68
2023-03-05T19:22:32.355Z,-1.70
2023-03-05T19:25:06.691Z,-1.73
2023-03-05T19:27:35.054Z,-1.75
2023-03-05T19:30:17.481Z,-1.78
2023-03-05T19:32:50.327Z,-1.80
2023-03-05T19:35:21.822Z,-1.82
2023-03-05T19:37:50.262Z,-1.84
2023-03-05T19:40:23.890Z,-1.86
2023-03-05T19:42:52.021Z,-1.88
2023-03-05T19:45:20.122Z,-1.91
2023-03-05T19:47:48.266Z,-1.93
2023-03-05T19:50:16.992Z,-1.96
2023-03-05T19:52:47.389Z,-1.98
2023-03-05T19:55:15.860Z,-2.01
2023-03-05T19:58:08.233Z,-2.03
2023-03-05T20:00:36.528Z,-2.05
2023-03-05T20:03:04.686Z,-2.08
2023-03-05T20:05:51.871Z,-2.11
2023-03-05T20:09:00.361Z,-2.15
2023-03-05T20:11:34.280Z,-2.19
2023-03-05T20:14:16.817Z,-2.21
2023-03-05T20:16:55.629Z,-2.23
2023-03-05T20:19:36.893Z,-2.25
2023-03-05T20:22:47.501Z,-2.28
2023-03-05T20:25:39.261Z,-2.31
2023-03-05T20:28:25.774Z,-2.33
2023-03-05T20:31:14.339Z,-2.35
2023-03-05T20:33:50.822Z,-2.39
2023-03-05T20:36:28.980Z,-2.41
2023-03-05T20:38:59.639Z,-2.44
2023-03-05T20:41:40.846Z,-2.45
2023-03-05T20:44:50.426Z,-2.48
2023-03-05T20:47:46.896Z,-2.50
2023-03-05T20:50:44.364Z,-2.52
2023-03-05T20:53:22.833Z,-2.53
2023-03-05T20:55:53.986Z,-2.55
2023-03-05T20:58:21.999Z,-2.56
2023-03-05T21:01:10.219Z,-2.57
2023-03-05T21:03:49.690Z,-2.59
2023-03-05T21:06:30.079Z,-2.60
2023-03-05T21:08:58.934Z,-2.62
2023-03-05T21:11:37.158Z,-2.64
2023-03-05T21:14:05.418Z,-2.65
2023-03-05T21:16:53.745Z,-2.66
2023-03-05T21:19:33.754Z,-2.68
2023-03-05T21:22:07.673Z,-2.69
2023-03-05T21:25:25.922Z,-2.70
2023-03-05T21:28:03.312Z,-2.72
2023-03-05T21:30:40.769Z,-2.74
2023-03-05T21:33:24.684Z,-2.76
2023-03-05T21:35:54.379Z,-2.78
2023-03-05T21:38:25.431Z,-2.80
2023-03-05T21:40:59.911Z,-2.82
2023-03-05T21:43:37.822Z,-2.84
2023-03-05T21:46:08.437Z,-2.86
2023-03-05T21:48:38.955Z,-2.92
2023-03-05T21:51:48.337Z,-2.92
2023-03-05T21:54:44.580Z,-2.93
2023-03-05T21:57:12.675Z,-2.94
2023-03-05T21:59:48.098Z,-2.96
2023-03-05T22:02:22.180Z,-2.97
2023-03-05T22:04:56.178Z,-2.98
2023-03-05T22:08:35.016Z,-2.99
2023-03-05T22:11:43.729Z,-3.00
2023-03-05T22:14:32.612Z,-3.01
2023-03-05T22:17:21.050Z,-3.02
2023-03-05T22:19:52.560Z,-3.02
2023-03-05T22:22:24.032Z,-3.03
2023-03-05T22:24:52.187Z,-3.04
2023-03-05T22:27:20.382Z,-3.04
2023-03-05T22:30:00.735Z,-3.05
2023-03-05T22:32:36.044Z,-3.05
2023-03-05T22:35:26.569Z,-3.06
2023-03-05T22:37:54.970Z,-3.08
2023-03-05T22:40:26.430Z,-3.09
2023-03-05T22:42:54.518Z,-3.11
2023-03-05T22:45:25.236Z,-3.12
2023-03-05T22:47:53.317Z,-3.14
2023-03-05T22:50:24.484Z,-3.15
2023-03-05T22:53:03.307Z,-3.17
2023-03-05T22:55:34.080Z,-3.19
2023-03-05T22:58:34.715Z,-3.21
2023-03-05T23:01:30.377Z,-3.22
2023-03-05T23:04:49.145Z,-3.25
2023-03-05T23:07:29.794Z,-3.28
2023-03-05T23:10:01.432Z,-3.30
2023-03-05T23:12:44.069Z,-3.32
2023-03-05T23:15:18.762Z,-3.33
2023-03-05T23:18:17.182Z,-3.36
2023-03-05T23:21:12.840Z,-3.38
2023-03-05T23:23:47.392Z,-3.40
2023-03-05T23:26:28.695Z,-3.42
2023-03-05T23:29:10.516Z,-3.44
2023-03-05T23:32:01.865Z,-3.46
2023-03-05T23:34:41.664Z,-3.47
2023-03-05T23:37:12.857Z,-3.49
2023-03-05T23:40:02.862Z,-3.51
2023-03-05T23:42:39.770Z,-3.52
2023-03-05T23:45:10.268Z,-3.54
2023-03-05T23:47:48.784Z,-3.55
2023-03-05T23:50:37.637Z,-3.56
2023-03-05T23:53:06.870Z,-3.59
2023-03-05T23:55:47.279Z,-3.59
2023-03-05T23:58:16.389Z,-3.61
